Bookmark and Share
Track history (hours):
 

Drifting buoy 21539

Last reported at 2013-Nov-09 04:10 UTC. Time now 2014-Apr-19 09:32 UTC.
Position N 24°16' W 153°22'.
Warning: this ship's position is months out of date.

Barometer 1015.7 mb
Water temperature 26.0 ° C

NotesDate/timePositionNaut miles runAvg speedWind from/ knotsBaromVisibWave heightAir tempDewpointWater temp
2013-Nov-09 04:10N 24°16' W 153°22'0 0.3 1015.7 26.0
2013-Nov-09 03:10N 24°17' W 153°22'1 0.3 1015.3 26.0
2013-Nov-09 01:10N 24°16' W 153°22'2 0.8 1015.0 26.0
2013-Nov-08 23:10N 24°18' W 153°22'0 0.0 1015.5 26.0
2013-Nov-08 22:10N 24°18' W 153°22'0 0.0 1016.8 26.0
2013-Nov-08 21:10N 24°18' W 153°22'1 0.6 1017.8 26.0
2013-Nov-08 20:10N 24°17' W 153°21'1 0.6 1017.9 26.0
2013-Nov-08 19:10N 24°18' W 153°21'0 0.0 1017.9 26.0
2013-Nov-08 18:10N 24°18' W 153°21'1 0.3 1017.8 25.9
2013-Nov-08 15:10N 24°18' W 153°20'0 0.2 1016.6 26.0
2013-Nov-08 14:10N 24°18' W 153°20'0 0.2 1016.4 26.0
2013-Nov-08 12:10N 24°18' W 153°20'1 0.6 1016.7 26.0
2013-Nov-08 10:10N 24°18' W 153°19'1 0.3 1017.8 26.0
2013-Nov-08 08:10N 24°18' W 153°18'0 0.1 1018.3 26.0
2013-Nov-08 07:10N 24°18' W 153°18'0 0.0 1018.3 26.0
2013-Nov-08 06:10N 24°18' W 153°18'1 0.6 1017.9 25.9
2013-Nov-08 05:10N 24°18' W 153°18'0 0.0 1017.5 25.9
2013-Nov-08 04:10N 24°18' W 153°18'0 0.2 1016.7 25.9
2013-Nov-08 03:10N 24°18' W 153°18'1 0.7 1016.3 26.0
2013-Nov-08 01:10N 24°17' W 153°17'1 1.4 1015.6 26.0
2013-Nov-08 00:10N 24°18' W 153°16'1 1.1 1015.6 26.0
2013-Nov-07 23:10N 24°17' W 153°16'1 0.3 1016.1 26.0
2013-Nov-07 21:10N 24°16' W 153°16'1 0.9 1017.5 25.9
2013-Nov-07 20:10N 24°15' W 153°15'3 1.6 1017.7 26.0
2013-Nov-07 18:10N 24°13' W 153°14'0 0.0 1017.1 26.0
2013-Nov-07 15:10N 24°13' W 153°14'2 1.8 1014.8 25.9
2013-Nov-07 14:10N 24°11' W 153°12'0 0.0 1014.7 25.9
2013-Nov-07 13:10N 24°11' W 153°12'1 1.3 1014.8 25.9
2013-Nov-07 12:10N 24°11' W 153°11'0 0.0 1015.0 25.9
2013-Nov-07 11:10N 24°11' W 153°11'0 0.0 1015.6 25.9
2013-Nov-07 10:10N 24°11' W 153°11'0 0.1 1015.7 26.0
2013-Nov-07 07:10N 24°11' W 153°11'0 0.2 1016.1 26.0
2013-Nov-07 06:10N 24°11' W 153°11'1 0.6 1015.9 26.0
2013-Nov-07 05:10N 24°11' W 153°10'0 0.1 1015.4 26.0
2013-Nov-07 03:10N 24°11' W 153°10'1 0.3 1014.1 26.0
2013-Nov-07 01:10N 24°10' W 153°10'0 0.0 1013.6 26.2
2013-Nov-07 00:10N 24°10' W 153°10'1 1.0 1013.6 26.3
2013-Nov-06 23:10N 24°09' W 153°10'0 0.1 1014.5 26.3
2013-Nov-06 19:10N 24°09' W 153°10'0 0.1 1016.2 26.0
2013-Nov-06 17:10N 24°09' W 153°10'0 0.1 1015.6 26.0
2013-Nov-06 16:10N 24°09' W 153°10'1 0.7 1015.3 26.0
2013-Nov-06 14:10N 24°10' W 153°11'1 0.6 1014.9 26.0
2013-Nov-06 12:10N 24°10' W 153°12'0 0.0 1015.4 26.0
2013-Nov-06 11:10N 24°10' W 153°12'0 0.0 1015.6 26.0
2013-Nov-06 10:10N 24°10' W 153°12'1 0.3 1015.8 26.1
2013-Nov-06 07:10N 24°10' W 153°13'0 0.2 1016.9 26.2
2013-Nov-06 06:10N 24°10' W 153°13'0 0.1 1016.7 26.2
2013-Nov-06 04:10N 24°10' W 153°13'1 0.3 1015.7 26.3
2013-Nov-06 02:10N 24°10' W 153°12'1 0.7 1014.9 26.4
2013-Nov-06 01:10N 24°11' W 153°13'0 0.3 1015.1 26.4
2013-Nov-06 00:10N 24°11' W 153°12'0 0.2 1015.3 26.4
2013-Nov-05 22:10N 24°10' W 153°13'0 0.5 1016.7 26.2
2013-Nov-05 21:10N 24°11' W 153°13'1 0.3 1017.4 26.1
2013-Nov-05 19:10N 24°11' W 153°14'0 0.3 1017.8 26.0
2013-Nov-05 18:10N 24°11' W 153°14'0 0.2 1017.4 26.0
2013-Nov-05 16:10N 24°10' W 153°14'1 0.4 1016.7 26.0
2013-Nov-05 14:10N 24°09' W 153°14'0 0.0 1016.3 26.0
2013-Nov-05 13:10N 24°09' W 153°14'0 0.1 1016.4 26.0
2013-Nov-05 12:10N 24°09' W 153°14'1 0.5 1016.9 26.0
2013-Nov-05 11:10N 24°09' W 153°14'1 0.2 1017.3 26.0
2013-Nov-05 08:10N 24°08' W 153°13'0 0.1 1018.5 26.0
2013-Nov-05 07:10N 24°08' W 153°13'0 0.2 1018.8 25.9
2013-Nov-05 06:10N 24°08' W 153°13'1 0.9 1018.6 26.0
2013-Nov-05 05:10N 24°08' W 153°12'1 0.2 1018.0 26.0
2013-Nov-05 01:50N 24°08' W 153°11'0 0.7 1016.8 26.0
2013-Nov-05 01:10N 24°07' W 153°11'1 0.7 1016.6 26.1
2013-Nov-05 00:10N 24°07' W 153°11'1 0.3 1016.5 26.0
2013-Nov-04 22:10N 24°08' W 153°11'0 0.1 1017.9 26.0
2013-Nov-04 21:10N 24°08' W 153°11'1 0.8 1018.6 26.0
2013-Nov-04 20:10N 24°08' W 153°12'0 0.4 1019.3 26.0
2013-Nov-04 19:10N 24°08' W 153°12'0 0.4 1019.1 26.0
2013-Nov-04 18:10N 24°08' W 153°12'0 0.1 1018.8 26.0
2013-Nov-04 15:10N 24°08' W 153°12'0 0.2 1018.1 25.9
2013-Nov-04 13:10N 24°08' W 153°11'0 0.0 1018.0 26.0
2013-Nov-04 11:10N 24°08' W 153°11'1 0.6 1018.6 26.0
2013-Nov-04 10:10N 24°08' W 153°11'1 0.5 1018.5 26.0
2013-Nov-04 08:10N 24°07' W 153°11'0 0.3 1019.4 26.0
2013-Nov-04 07:10N 24°07' W 153°11'0 0.2 1019.5 26.0
2013-Nov-04 06:10N 24°07' W 153°11'0 0.2 1019.3 26.0
2013-Nov-04 05:10N 24°06' W 153°11'2 1.2 1018.6 26.0
2013-Nov-04 03:10N 24°06' W 153°08'0 0.3 1018.1 26.0
2013-Nov-04 02:10N 24°06' W 153°09'1 1.4 1017.8 26.0
2013-Nov-04 01:10N 24°06' W 153°07'0 0.0 1017.6 26.0
2013-Nov-04 00:10N 24°06' W 153°07'1 0.3 1017.7 26.0
2013-Nov-03 22:10N 24°07' W 153°07'1 0.5 1019.9 26.0
2013-Nov-03 20:10N 24°06' W 153°05'1 0.8 1021.2 26.0
2013-Nov-03 19:10N 24°07' W 153°05'1 0.8 1021.2 25.9
2013-Nov-03 18:10N 24°07' W 153°04'0 0.1 1020.4 26.0
2013-Nov-03 16:10N 24°07' W 153°04'0 0.0 1019.7 26.0
2013-Nov-03 15:10N 24°07' W 153°04'1 0.3 1019.4 26.0
2013-Nov-03 13:10N 24°08' W 153°04'1 0.4 1019.5 26.0
2013-Nov-03 11:10N 24°07' W 153°03'0 0.0 1020.2 26.0
2013-Nov-03 10:10N 24°07' W 153°03'0 0.0 1020.3 26.0
2013-Nov-03 08:10N 24°07' W 153°03'1 0.4 1020.9 26.0
2013-Nov-03 06:10N 24°06' W 153°02'1 0.8 1020.9 26.0
2013-Nov-03 05:10N 24°06' W 153°02'0 0.0 1020.6 26.0
2013-Nov-03 04:10N 24°06' W 153°02'1 0.9 1019.9 26.0
2013-Nov-03 03:10N 24°06' W 153°01'1 0.6 1019.6 26.0
2013-Nov-03 02:10N 24°06' W 152°60'0 0.5 1019.3 26.0
2013-Nov-03 01:10N 24°05' W 152°60'1 0.6 1019.3 26.0
2013-Nov-03 00:10N 24°05' W 152°59'1 0.6 1019.5 26.0
2013-Nov-02 23:10N 24°05' W 152°58'0 0.1 1019.9 26.0
2013-Nov-02 22:10N 24°05' W 152°58'2 0.8 1020.5 26.0
2013-Nov-02 19:10N 24°06' W 152°56'1 0.4 1021.6 26.0
2013-Nov-02 15:10N 24°07' W 152°55'1 0.8 1019.7 26.0
2013-Nov-02 14:10N 24°07' W 152°54'1 0.8 1019.4 26.0
2013-Nov-02 13:10N 24°08' W 152°53'0 0.0 1019.4 26.0
2013-Nov-02 12:10N 24°08' W 152°53'1 1.2 1019.7 26.0
2013-Nov-02 11:10N 24°08' W 152°52'0 0.0 1020.0 26.0
2013-Nov-02 10:10N 24°08' W 152°52'0 0.0 1020.6 26.0
2013-Nov-02 08:10N 24°08' W 152°52'0 0.4 1021.2 26.0
2013-Nov-02 07:10N 24°08' W 152°52'0 0.0 1021.1 26.0
2013-Nov-02 06:10N 24°08' W 152°52'1 1.4 1020.8 26.0
2013-Nov-02 05:10N 24°07' W 152°51'0 0.5 1020.4 26.0
2013-Nov-02 04:10N 24°07' W 152°50'0 0.1 1019.6 26.0
2013-Nov-02 02:10N 24°07' W 152°50'1 0.8 1018.4 26.0
2013-Nov-02 01:10N 24°07' W 152°49'1 0.8 1018.3 26.0
2013-Nov-02 00:10N 24°07' W 152°48'2 1.0 1018.4 26.0
2013-Nov-01 22:10N 24°09' W 152°47'0 0.2 1019.6 26.0
2013-Nov-01 20:10N 24°09' W 152°46'1 0.9 1021.0 26.0
2013-Nov-01 19:10N 24°09' W 152°45'0 0.1 1021.1 26.0
2013-Nov-01 16:10N 24°10' W 152°45'1 0.7 1019.9 26.0
2013-Nov-01 15:10N 24°09' W 152°45'1 0.6 1019.4 26.0
2013-Nov-01 13:10N 24°10' W 152°43'0 0.0 1019.2 26.0
2013-Nov-01 12:10N 24°10' W 152°43'1 1.1 1019.6 26.0
2013-Nov-01 11:10N 24°10' W 152°42'1 1.1 1019.9 26.0
2013-Nov-01 10:10N 24°10' W 152°43'1 0.6 1020.0 26.0
2013-Nov-01 08:10N 24°10' W 152°42'0 0.3 1021.2 26.1
2013-Nov-01 07:10N 24°10' W 152°42'0 0.3 1021.2 26.1
2013-Nov-01 06:10N 24°10' W 152°42'0 0.2 1021.0 26.0
2013-Nov-01 05:10N 24°10' W 152°41'0 0.0 1020.5 26.1
2013-Nov-01 04:10N 24°10' W 152°41'0 0.2 1019.7 26.1
2013-Nov-01 02:10N 24°10' W 152°42'0 0.3 1018.8 26.2
2013-Nov-01 01:10N 24°10' W 152°42'0 0.1 1018.8 26.2
2013-Oct-31 23:10N 24°11' W 152°41'1 0.3 1019.3 26.2
2013-Oct-31 21:10N 24°11' W 152°41'0 0.5 1020.7 26.1
2013-Oct-31 20:10N 24°11' W 152°42'1 0.6 1021.3 26.0
2013-Oct-31 19:10N 24°10' W 152°42'0 0.0 1021.3 26.0
2013-Oct-31 18:10N 24°10' W 152°42'0 0.1 1021.0 26.0
2013-Oct-31 15:10N 24°11' W 152°42'0 0.5 1019.3 26.0
2013-Oct-31 14:10N 24°11' W 152°41'0 0.5 1019.1 26.0
2013-Oct-31 13:10N 24°11' W 152°42'0 0.0 1019.4 26.0
2013-Oct-31 12:10N 24°11' W 152°42'1 0.7 1019.9 26.0
2013-Oct-31 11:10N 24°12' W 152°41'0 0.0 1020.4 26.0
2013-Oct-31 10:10N 24°12' W 152°41'0 0.0 1020.9 26.0
2013-Oct-31 09:10N 24°12' W 152°41'1 0.3 1021.3 26.0
2013-Oct-31 07:10N 24°12' W 152°42'0 0.3 1021.3 26.0
2013-Oct-31 06:10N 24°12' W 152°41'1 0.7 1021.3 26.0
2013-Oct-31 05:10N 24°12' W 152°42'1 0.5 1020.7 26.0
2013-Oct-31 04:10N 24°12' W 152°42'0 0.4 1020.0 26.0
2013-Oct-31 03:10N 24°12' W 152°42'0 0.2 1019.3 26.0
2013-Oct-31 01:10N 24°12' W 152°42'1 0.3 1018.8 26.0
2013-Oct-30 23:10N 24°12' W 152°42'0 0.1 1019.3 26.0
2013-Oct-30 21:10N 24°12' W 152°42'0 0.3 1020.8 26.1
2013-Oct-30 20:10N 24°12' W 152°41'0 0.4 1021.3 26.1
2013-Oct-30 19:10N 24°12' W 152°42'0 0.2 1021.5 26.0
2013-Oct-30 18:10N 24°12' W 152°42'0 0.0 1021.0 26.0
2013-Oct-30 17:10N 24°12' W 152°42'1 0.7 1020.7 26.0
2013-Oct-30 15:10N 24°13' W 152°40'1 1.4 1019.5 26.0
2013-Oct-30 14:10N 24°13' W 152°39'0 0.0 1019.3 26.0
2013-Oct-30 12:10N 24°13' W 152°39'0 0.0 1019.6 26.0
2013-Oct-30 09:10N 24°13' W 152°39'0 0.1 1020.4 26.0
2013-Oct-30 08:10N 24°14' W 152°39'0 0.2 1020.6 26.0
2013-Oct-30 07:10N 24°14' W 152°39'0 0.5 1020.7 26.0
2013-Oct-30 06:10N 24°14' W 152°39'0 0.2 1020.5 26.0
2013-Oct-30 05:10N 24°14' W 152°38'0 0.0 1019.7 26.1
2013-Oct-30 04:10N 24°14' W 152°38'   1018.9 26.1

Dump ship's entire track history

sailing weather and tide predictions

Buoy 21539